createdAt,value
2022-11-06T00:01:09.442Z,0.35
2022-11-06T00:03:41.281Z,0.43
2022-11-06T00:06:34.663Z,0.20
2022-11-06T00:09:08.251Z,0.40
2022-11-06T00:11:37.333Z,0.60
2022-11-06T00:14:04.830Z,0.25
2022-11-06T00:19:02.740Z,0.30
2022-11-06T00:21:32.230Z,0.30
2022-11-06T00:24:04.895Z,0.25
2022-11-06T00:26:34.135Z,0.50
2022-11-06T00:29:02.602Z,0.50
2022-11-06T00:31:35.745Z,0.47
2022-11-06T00:34:05.106Z,0.25
2022-11-06T00:36:32.395Z,0.60
2022-11-06T00:39:00.577Z,0.45
2022-11-06T00:41:28.186Z,0.43
2022-11-06T00:44:05.279Z,0.30
2022-11-06T00:46:41.286Z,0.40
2022-11-06T00:49:08.675Z,0.30
2022-11-06T00:51:44.996Z,0.40
2022-11-06T00:54:14.281Z,0.45
2022-11-06T00:56:42.755Z,0.30
2022-11-06T00:59:14.229Z,0.47
2022-11-06T01:01:45.276Z,0.50
2022-11-06T01:04:18.491Z,0.43
2022-11-06T01:06:51.006Z,0.30
2022-11-06T01:09:22.332Z,0.73
2022-11-06T01:14:45.033Z,0.60
2022-11-06T01:17:14.604Z,0.30
2022-11-06T01:19:42.053Z,0.30
2022-11-06T01:22:10.263Z,0.60
2022-11-06T01:24:44.869Z,0.35
2022-11-06T01:27:25.926Z,0.35
2022-11-06T01:29:58.091Z,0.40
2022-11-06T01:32:25.822Z,0.38
2022-11-06T01:34:53.011Z,0.50
2022-11-06T01:37:24.088Z,0.30
2022-11-06T01:39:52.731Z,0.32
2022-11-06T01:42:23.991Z,0.79
2022-11-06T01:45:25.526Z,0.45
2022-11-06T01:47:54.208Z,0.35
2022-11-06T01:50:22.287Z,0.73
2022-11-06T01:52:54.201Z,0.40
2022-11-06T01:55:40.725Z,0.30
2022-11-06T01:58:14.020Z,0.47
2022-11-06T02:00:52.624Z,0.20
2022-11-06T02:03:22.661Z,0.50
2022-11-06T02:05:52.900Z,0.45
2022-11-06T02:08:28.637Z,0.28
2022-11-06T02:11:02.371Z,0.50
2022-11-06T02:14:24.451Z,0.60
2022-11-06T02:17:27.872Z,0.82
2022-11-06T02:20:19.637Z,0.40
2022-11-06T02:23:05.436Z,0.50
2022-11-06T02:25:48.659Z,0.52
2022-11-06T02:28:35.822Z,0.73
2022-11-06T02:31:18.149Z,0.55
2022-11-06T02:33:54.978Z,0.70
2022-11-06T02:36:32.984Z,0.30
2022-11-06T02:39:10.201Z,0.90
2022-11-06T02:41:44.592Z,0.82
2022-11-06T02:44:20.748Z,0.93
2022-11-06T02:47:06.245Z,0.55
2022-11-06T02:49:50.525Z,0.68
2022-11-06T02:52:46.619Z,0.70
2022-11-06T02:55:33.607Z,0.70
2022-11-06T02:58:29.335Z,0.47
2022-11-06T03:01:07.773Z,0.45
2022-11-06T03:03:45.658Z,0.40
2022-11-06T03:06:36.401Z,0.68
2022-11-06T03:09:19.631Z,0.98
2022-11-06T03:12:00.031Z,0.55
2022-11-06T03:14:45.980Z,0.60
2022-11-06T03:17:31.179Z,0.95
2022-11-06T03:20:22.914Z,0.82
2022-11-06T03:23:05.716Z,0.88
2022-11-06T03:25:49.654Z,0.40
2022-11-06T03:28:59.690Z,0.80
2022-11-06T03:31:40.302Z,1.20
2022-11-06T03:34:26.138Z,0.77
2022-11-06T03:37:09.716Z,0.57
2022-11-06T03:39:46.416Z,0.68
2022-11-06T03:42:24.466Z,0.60
2022-11-06T03:45:08.954Z,0.75
2022-11-06T03:47:48.516Z,1.17
2022-11-06T03:50:37.673Z,0.90
2022-11-06T03:53:23.888Z,0.50
2022-11-06T03:56:02.900Z,0.50
2022-11-06T03:58:41.208Z,0.55
2022-11-06T04:01:13.570Z,0.50
2022-11-06T04:04:00.959Z,0.45
2022-11-06T04:07:02.380Z,0.70
2022-11-06T04:09:53.984Z,0.32
2022-11-06T04:13:04.647Z,0.47
2022-11-06T04:15:41.717Z,0.70
2022-11-06T04:18:14.539Z,0.65
2022-11-06T04:21:22.426Z,0.80
2022-11-06T04:24:25.480Z,0.98
2022-11-06T04:27:11.250Z,1.80
2022-11-06T04:29:56.027Z,1.40
2022-11-06T04:32:34.458Z,1.17
2022-11-06T04:35:20.945Z,1.05
2022-11-06T04:38:22.237Z,1.13
2022-11-06T04:40:55.346Z,1.30
2022-11-06T04:43:57.887Z,1.10
2022-11-06T04:46:41.069Z,0.90
2022-11-06T04:49:12.346Z,0.52
2022-11-06T04:51:43.696Z,0.60
2022-11-06T04:54:12.845Z,0.65
2022-11-06T04:56:45.757Z,0.90
2022-11-06T04:59:18.377Z,0.55
2022-11-06T05:01:47.150Z,0.77
2022-11-06T05:04:17.495Z,0.80
2022-11-06T05:06:47.572Z,0.65
2022-11-06T05:09:15.895Z,0.60
2022-11-06T05:11:43.715Z,0.70
2022-11-06T05:14:11.022Z,0.40
2022-11-06T05:16:40.768Z,0.40
2022-11-06T05:19:08.194Z,0.45
2022-11-06T05:21:55.610Z,0.68
2022-11-06T05:24:23.417Z,0.60
2022-11-06T05:27:06.285Z,0.70
2022-11-06T05:29:33.493Z,0.80
2022-11-06T05:32:00.679Z,0.63
2022-11-06T05:34:32.283Z,0.70
2022-11-06T05:37:04.969Z,0.55
2022-11-06T05:39:32.201Z,1.20
2022-11-06T05:41:59.430Z,0.43
2022-11-06T05:44:26.830Z,0.40
2022-11-06T05:46:58.953Z,0.60
2022-11-06T05:49:26.297Z,0.50
2022-11-06T05:51:53.684Z,0.80
2022-11-06T05:54:21.038Z,0.70
2022-11-06T05:56:48.336Z,0.80
2022-11-06T05:59:17.292Z,0.70
2022-11-06T06:01:49.175Z,0.50
2022-11-06T06:04:16.486Z,0.90
2022-11-06T06:06:45.055Z,0.85
2022-11-06T06:09:16.124Z,0.50
2022-11-06T06:11:44.706Z,0.60
2022-11-06T06:14:15.631Z,0.50
2022-11-06T06:16:42.926Z,0.50
2022-11-06T06:19:10.338Z,0.93
2022-11-06T06:21:39.731Z,0.60
2022-11-06T06:24:08.050Z,0.55
2022-11-06T06:26:40.727Z,0.50
2022-11-06T06:29:08.107Z,0.55
2022-11-06T06:31:35.334Z,0.50
2022-11-06T06:34:02.458Z,0.40
2022-11-06T06:36:29.790Z,0.70
2022-11-06T06:38:58.925Z,0.45
2022-11-06T06:41:26.903Z,0.70
2022-11-06T06:43:56.848Z,0.60
2022-11-06T06:46:27.181Z,0.55
2022-11-06T06:49:00.524Z,1.10
2022-11-06T06:51:31.616Z,0.50
2022-11-06T06:54:02.851Z,0.50
2022-11-06T06:56:38.754Z,0.40
2022-11-06T06:59:08.686Z,0.60
2022-11-06T07:01:36.453Z,0.70
2022-11-06T07:04:05.056Z,0.57
2022-11-06T07:06:34.894Z,0.60
2022-11-06T07:09:04.164Z,0.70
2022-11-06T07:11:32.177Z,0.55
2022-11-06T07:14:02.124Z,0.45
2022-11-06T07:16:31.874Z,0.35
2022-11-06T07:19:04.937Z,0.50
2022-11-06T07:21:38.262Z,0.82
2022-11-06T07:24:11.453Z,0.60
2022-11-06T07:26:41.330Z,0.60
2022-11-06T07:29:14.197Z,0.43
2022-11-06T07:31:48.373Z,0.40
2022-11-06T07:34:17.541Z,0.70
2022-11-06T07:36:55.115Z,0.57
2022-11-06T07:39:26.572Z,1.17
2022-11-06T07:41:53.846Z,0.80
2022-11-06T07:44:24.015Z,0.52
2022-11-06T07:46:55.687Z,0.55
2022-11-06T07:49:29.969Z,0.70
2022-11-06T07:52:08.612Z,0.50
2022-11-06T07:54:36.642Z,0.68
2022-11-06T07:57:04.376Z,0.63
2022-11-06T07:59:36.255Z,0.45
2022-11-06T08:02:04.500Z,0.47
2022-11-06T08:04:32.186Z,0.50
2022-11-06T08:07:01.995Z,0.47
2022-11-06T08:09:37.436Z,0.50
2022-11-06T08:12:06.018Z,0.50
2022-11-06T08:14:41.273Z,0.55
2022-11-06T08:17:13.089Z,0.32
2022-11-06T08:19:42.261Z,0.43
2022-11-06T08:22:16.076Z,0.50
2022-11-06T08:27:16.588Z,0.57
2022-11-06T08:29:45.201Z,0.93
2022-11-06T08:32:14.621Z,0.60
2022-11-06T08:34:47.850Z,0.60
2022-11-06T08:37:15.065Z,0.60
2022-11-06T08:39:47.901Z,0.50
2022-11-06T08:42:21.570Z,0.63
2022-11-06T08:44:52.999Z,0.43
2022-11-06T08:47:21.011Z,0.50
2022-11-06T08:49:49.296Z,0.50
2022-11-06T08:52:18.926Z,0.60
2022-11-06T08:54:51.476Z,0.40
2022-11-06T08:57:23.512Z,0.90
2022-11-06T08:59:55.520Z,0.40
2022-11-06T09:02:28.339Z,0.47
2022-11-06T09:05:06.048Z,0.80
2022-11-06T09:07:34.199Z,0.60
2022-11-06T09:10:04.659Z,0.63
2022-11-06T09:12:39.483Z,0.57
2022-11-06T09:15:10.885Z,0.57
2022-11-06T09:17:49.161Z,0.70
2022-11-06T09:20:20.412Z,0.60
2022-11-06T09:22:49.729Z,1.00
2022-11-06T09:25:22.356Z,0.30
2022-11-06T09:27:59.174Z,0.43
2022-11-06T09:30:33.573Z,0.35
2022-11-06T09:35:37.310Z,0.60
2022-11-06T09:38:11.343Z,0.52
2022-11-06T09:41:03.143Z,0.60
2022-11-06T09:44:10.995Z,0.70
2022-11-06T09:46:48.675Z,0.60
2022-11-06T09:49:43.719Z,1.10
2022-11-06T09:53:06.736Z,0.52
2022-11-06T09:55:49.805Z,0.45
2022-11-06T09:58:38.369Z,0.50
2022-11-06T10:01:40.271Z,0.73
2022-11-06T10:04:42.981Z,0.47
2022-11-06T10:07:24.181Z,0.50
2022-11-06T10:10:07.507Z,0.70
2022-11-06T10:13:01.263Z,0.88
2022-11-06T10:15:51.687Z,0.80
2022-11-06T10:19:15.312Z,0.73
2022-11-06T10:22:11.308Z,0.70
2022-11-06T10:25:05.603Z,0.35
2022-11-06T10:27:43.457Z,0.98
2022-11-06T10:30:20.273Z,0.70
2022-11-06T10:33:44.366Z,0.57
2022-11-06T10:36:36.144Z,0.40
2022-11-06T10:39:26.205Z,0.60
2022-11-06T10:42:03.039Z,0.60
2022-11-06T10:44:45.110Z,0.68
2022-11-06T10:47:24.955Z,0.75
2022-11-06T10:50:01.223Z,0.90
2022-11-06T10:52:35.397Z,0.50
2022-11-06T10:55:45.697Z,0.80
2022-11-06T10:58:27.226Z,0.52
2022-11-06T11:01:01.300Z,0.40
2022-11-06T11:03:44.835Z,0.57
2022-11-06T11:06:14.941Z,0.50
2022-11-06T11:08:54.531Z,0.63
2022-11-06T11:11:29.854Z,0.50
2022-11-06T11:13:56.967Z,0.40
2022-11-06T11:16:34.996Z,0.50
2022-11-06T11:19:44.528Z,0.82
2022-11-06T11:22:24.898Z,0.90
2022-11-06T11:25:13.633Z,0.60
2022-11-06T11:30:37.286Z,0.65
2022-11-06T11:33:18.664Z,1.80
2022-11-06T11:35:51.899Z,0.80
2022-11-06T11:38:31.642Z,0.60
2022-11-06T11:41:26.477Z,0.70
2022-11-06T11:44:22.555Z,0.80
2022-11-06T11:46:57.576Z,0.40
2022-11-06T11:49:38.842Z,0.52
2022-11-06T11:52:19.807Z,1.00
2022-11-06T11:54:54.555Z,0.65
2022-11-06T11:57:30.177Z,0.88
2022-11-06T12:00:08.020Z,0.90
2022-11-06T12:02:48.882Z,0.98
2022-11-06T12:05:25.075Z,0.60
2022-11-06T12:08:04.062Z,0.43
2022-11-06T12:13:29.401Z,0.52
2022-11-06T12:16:20.427Z,0.55
2022-11-06T12:18:59.453Z,1.08
2022-11-06T12:21:43.295Z,0.88
2022-11-06T12:24:25.861Z,0.75
2022-11-06T12:27:20.906Z,0.90
2022-11-06T12:30:14.623Z,1.10
2022-11-06T12:32:52.146Z,0.93
2022-11-06T12:35:36.629Z,0.68
2022-11-06T12:38:18.164Z,0.50
2022-11-06T12:40:57.084Z,0.65
2022-11-06T12:43:39.235Z,0.50
2022-11-06T12:46:51.320Z,0.95
2022-11-06T12:49:31.972Z,1.08
2022-11-06T12:52:33.857Z,0.68
2022-11-06T12:55:50.191Z,0.70
2022-11-06T12:58:25.818Z,0.70
2022-11-06T13:01:09.919Z,0.65
2022-11-06T13:04:08.564Z,0.50
2022-11-06T13:07:53.666Z,0.50
2022-11-06T13:10:57.577Z,0.82
2022-11-06T13:13:43.347Z,0.40
2022-11-06T13:16:16.732Z,0.40
2022-11-06T13:18:59.362Z,0.52
2022-11-06T13:22:07.931Z,0.47
2022-11-06T13:25:11.449Z,0.60
2022-11-06T13:27:58.113Z,0.60
2022-11-06T13:30:39.205Z,0.70
2022-11-06T13:33:25.205Z,0.77
2022-11-06T13:38:40.460Z,0.52
2022-11-06T13:41:30.053Z,0.52
2022-11-06T13:44:06.185Z,0.70
2022-11-06T13:47:01.846Z,0.88
2022-11-06T13:50:01.488Z,0.60
2022-11-06T13:52:53.639Z,0.70
2022-11-06T13:55:55.289Z,0.70
2022-11-06T13:59:07.404Z,0.70
2022-11-06T14:02:33.671Z,0.75
2022-11-06T14:05:37.057Z,1.10
2022-11-06T14:08:15.308Z,0.95
2022-11-06T14:10:59.952Z,1.20
2022-11-06T14:13:34.054Z,0.88
2022-11-06T14:16:26.654Z,0.70
2022-11-06T14:19:26.784Z,0.55
2022-11-06T14:22:31.958Z,0.60
2022-11-06T14:25:02.640Z,1.20
2022-11-06T14:27:30.998Z,0.90
2022-11-06T14:30:50.277Z,0.90
2022-11-06T14:34:05.489Z,0.68
2022-11-06T14:36:37.090Z,1.10
2022-11-06T14:39:13.549Z,0.93
2022-11-06T14:42:07.051Z,0.98
2022-11-06T14:44:52.944Z,0.70
2022-11-06T14:50:41.210Z,0.63
2022-11-06T14:53:30.125Z,0.73
2022-11-06T14:56:05.652Z,0.70
2022-11-06T14:58:55.697Z,0.60
2022-11-06T15:01:40.420Z,0.50
2022-11-06T15:04:35.500Z,0.82
2022-11-06T15:10:46.846Z,0.60
2022-11-06T15:13:17.516Z,0.52
2022-11-06T15:15:59.595Z,0.52
2022-11-06T15:18:30.752Z,0.60
2022-11-06T15:21:04.523Z,0.88
2022-11-06T15:24:12.647Z,0.73
2022-11-06T15:26:53.940Z,1.25
2022-11-06T15:29:30.927Z,0.82
2022-11-06T15:32:10.653Z,0.75
2022-11-06T15:35:08.635Z,0.93
2022-11-06T15:37:52.571Z,0.95
2022-11-06T15:40:38.086Z,0.68
2022-11-06T15:43:47.114Z,1.30
2022-11-06T15:46:26.639Z,0.65
2022-11-06T15:49:23.404Z,1.13
2022-11-06T15:52:17.900Z,0.93
2022-11-06T15:55:06.264Z,1.00
2022-11-06T15:57:38.977Z,1.05
2022-11-06T16:00:20.530Z,0.90
2022-11-06T16:03:01.317Z,0.82
2022-11-06T16:05:36.992Z,1.77
2022-11-06T16:08:07.872Z,1.63
2022-11-06T16:10:38.597Z,1.60
2022-11-06T16:13:15.049Z,1.08
2022-11-06T16:15:53.612Z,2.65
2022-11-06T16:18:46.611Z,2.80
2022-11-06T16:24:20.427Z,2.33
2022-11-06T16:26:58.129Z,2.10
2022-11-06T16:29:31.456Z,0.77
2022-11-06T16:32:08.242Z,1.60
2022-11-06T16:34:44.411Z,2.40
2022-11-06T16:37:32.362Z,2.20
2022-11-06T16:40:00.674Z,2.17
2022-11-06T16:42:36.682Z,1.85
2022-11-06T16:45:21.704Z,2.55
2022-11-06T16:48:10.574Z,1.40
2022-11-06T16:51:06.253Z,1.65
2022-11-06T16:54:13.419Z,2.00
2022-11-06T16:56:48.726Z,1.52
2022-11-06T16:59:25.584Z,2.00
2022-11-06T17:01:59.743Z,1.77
2022-11-06T17:04:31.242Z,1.63
2022-11-06T17:07:00.512Z,1.73
2022-11-06T17:09:35.774Z,2.42
2022-11-06T17:12:04.950Z,2.05
2022-11-06T17:14:40.106Z,1.35
2022-11-06T17:17:23.630Z,1.00
2022-11-06T17:19:53.291Z,1.25
2022-11-06T17:22:21.804Z,0.70
2022-11-06T17:24:53.370Z,0.85
2022-11-06T17:27:24.722Z,0.65
2022-11-06T17:30:00.995Z,0.95
2022-11-06T17:32:30.358Z,1.00
2022-11-06T17:35:00.469Z,1.17
2022-11-06T17:37:31.772Z,1.67
2022-11-06T17:40:04.797Z,1.33
2022-11-06T17:42:38.663Z,1.20
2022-11-06T17:47:40.445Z,0.82
2022-11-06T17:50:09.368Z,0.95
2022-11-06T17:52:36.753Z,1.90
2022-11-06T17:55:08.376Z,1.63
2022-11-06T17:57:37.399Z,1.70
2022-11-06T18:00:07.341Z,1.63
2022-11-06T18:02:59.717Z,1.75
2022-11-06T18:05:30.721Z,2.00
2022-11-06T18:07:59.237Z,1.42
2022-11-06T18:10:30.433Z,1.33
2022-11-06T18:12:58.879Z,1.42
2022-11-06T18:15:30.427Z,1.65
2022-11-06T18:17:59.243Z,1.42
2022-11-06T18:20:30.232Z,2.47
2022-11-06T18:23:04.477Z,2.97
2022-11-06T18:25:35.446Z,3.13
2022-11-06T18:28:07.065Z,2.80
2022-11-06T18:30:35.097Z,3.80
2022-11-06T18:33:08.411Z,4.20
2022-11-06T18:35:37.428Z,4.00
2022-11-06T18:38:06.271Z,4.55
2022-11-06T18:40:34.024Z,3.28
2022-11-06T18:43:04.468Z,4.53
2022-11-06T18:45:38.834Z,3.25
2022-11-06T18:48:09.748Z,1.60
2022-11-06T18:50:40.930Z,1.92
2022-11-06T18:53:15.929Z,3.60
2022-11-06T18:55:48.788Z,3.08
2022-11-06T18:58:22.524Z,2.65
2022-11-06T19:00:49.837Z,3.70
2022-11-06T19:03:20.548Z,8.30
2022-11-06T19:05:54.532Z,10.07
2022-11-06T19:08:25.883Z,7.78
2022-11-06T19:10:56.302Z,7.95
2022-11-06T19:13:29.160Z,10.43
2022-11-06T19:16:02.753Z,9.40
2022-11-06T19:18:32.649Z,6.38
2022-11-06T19:21:14.785Z,22.13
2022-11-06T19:23:45.907Z,3.75
2022-11-06T19:26:30.413Z,3.95
2022-11-06T19:29:00.896Z,3.63
2022-11-06T19:31:32.894Z,3.10
2022-11-06T19:34:02.424Z,3.08
2022-11-06T19:36:35.666Z,3.95
2022-11-06T19:39:05.384Z,5.65
2022-11-06T19:41:36.331Z,12.45
2022-11-06T19:44:07.817Z,4.88
2022-11-06T19:46:36.343Z,5.10
2022-11-06T19:49:10.758Z,5.25
2022-11-06T19:51:40.471Z,6.68
2022-11-06T19:54:12.380Z,5.88
2022-11-06T19:57:26.887Z,7.28
2022-11-06T19:59:33.544Z,15.13
2022-11-06T20:02:02.038Z,10.27
2022-11-06T20:04:29.498Z,4.22
2022-11-06T20:06:59.891Z,4.60
2022-11-06T20:09:27.236Z,5.28
2022-11-06T20:11:58.810Z,2.80
2022-11-06T20:14:29.013Z,2.08
2022-11-06T20:16:56.633Z,5.70
2022-11-06T20:19:24.369Z,3.80
2022-11-06T20:21:52.887Z,3.25
2022-11-06T20:24:42.180Z,2.75
2022-11-06T20:27:12.375Z,2.50
2022-11-06T20:29:41.163Z,2.35
2022-11-06T20:32:08.634Z,2.30
2022-11-06T20:34:36.847Z,3.13
2022-11-06T20:37:09.151Z,2.60
2022-11-06T20:39:43.020Z,3.97
2022-11-06T20:42:13.996Z,2.30
2022-11-06T20:44:41.619Z,4.05
2022-11-06T20:49:46.087Z,2.03
2022-11-06T20:52:15.857Z,3.88
2022-11-06T20:54:57.659Z,6.00
2022-11-06T20:57:28.927Z,2.58
2022-11-06T20:59:56.386Z,2.80
2022-11-06T21:02:24.059Z,2.75
2022-11-06T21:04:55.478Z,3.90
2022-11-06T21:07:29.332Z,5.15
2022-11-06T21:09:59.983Z,3.35
2022-11-06T21:12:27.532Z,7.22
2022-11-06T21:14:55.384Z,2.78
2022-11-06T21:17:25.507Z,11.10
2022-11-06T21:19:55.468Z,4.00
2022-11-06T21:22:23.311Z,2.45
2022-11-06T21:24:51.083Z,2.65
2022-11-06T21:27:20.859Z,2.25
2022-11-06T21:29:52.371Z,2.00
2022-11-06T21:32:27.924Z,2.63
2022-11-06T21:34:58.945Z,2.20
2022-11-06T21:37:33.342Z,2.20
2022-11-06T21:40:02.149Z,1.85
2022-11-06T21:42:37.047Z,2.05
2022-11-06T21:45:04.875Z,2.92
2022-11-06T21:47:33.718Z,2.28
2022-11-06T21:50:01.159Z,2.25
2022-11-06T21:52:48.542Z,2.45
2022-11-06T21:55:37.525Z,2.60
2022-11-06T21:58:16.836Z,2.25
2022-11-06T22:00:51.219Z,2.80
2022-11-06T22:06:17.447Z,2.45
2022-11-06T22:08:47.006Z,3.40
2022-11-06T22:11:17.236Z,6.68
2022-11-06T22:13:49.148Z,2.53
2022-11-06T22:16:22.517Z,4.25
2022-11-06T22:18:50.997Z,3.50
2022-11-06T22:21:26.041Z,3.40
2022-11-06T22:23:54.128Z,2.72
2022-11-06T22:26:27.693Z,2.70
2022-11-06T22:28:58.150Z,2.42
2022-11-06T22:31:26.829Z,2.05
2022-11-06T22:33:57.985Z,2.42
2022-11-06T22:36:26.936Z,3.05
2022-11-06T22:38:54.413Z,1.90
2022-11-06T22:41:25.054Z,1.50
2022-11-06T22:44:00.203Z,1.13
2022-11-06T22:46:32.760Z,1.13
2022-11-06T22:49:00.641Z,1.15
2022-11-06T22:51:38.410Z,1.17
2022-11-06T22:54:08.443Z,1.27
2022-11-06T22:56:39.555Z,1.00
2022-11-06T22:59:11.501Z,1.25
2022-11-06T23:01:42.677Z,1.13
2022-11-06T23:04:17.152Z,0.90
2022-11-06T23:06:46.322Z,1.02
2022-11-06T23:09:15.492Z,1.10
2022-11-06T23:11:47.139Z,0.75
2022-11-06T23:14:14.619Z,0.70
2022-11-06T23:17:01.027Z,0.70
2022-11-06T23:19:31.388Z,1.13
2022-11-06T23:22:18.015Z,1.00
2022-11-06T23:24:46.382Z,1.10
2022-11-06T23:27:18.574Z,1.00
2022-11-06T23:29:54.330Z,0.90
2022-11-06T23:32:22.132Z,0.88
2022-11-06T23:34:52.953Z,0.82
2022-11-06T23:37:20.876Z,0.60
2022-11-06T23:39:50.387Z,0.90
2022-11-06T23:42:23.256Z,0.80
2022-11-06T23:45:11.637Z,0.85
2022-11-06T23:47:38.812Z,0.90
2022-11-06T23:50:07.743Z,0.70
2022-11-06T23:52:36.205Z,0.82
2022-11-06T23:55:04.494Z,0.80
2022-11-06T23:57:34.623Z,1.55
